Time;durP1;ratioP1;P1;durP2;ratioP2;P2;SDS_P1;SDS_P2;PMS_P1;PMS_P2;Temp;Humidity;BMP_temperature;BMP_pressure;BME280_temperature;BME280_humidity;BME280_pressure;Samples;Min_cycle;Max_cycle;Signal;HPM_P1;HPM_P2
2021/10/31 00:01:18;;;;;;;25.85;15.25;;;;;;;;;;5091901;28;20410;-64
2021/10/31 00:03:45;;;;;;;27.35;15.70;;;;;;;;;;5091745;28;20484;-64
2021/10/31 00:06:10;;;;;;;27.55;16.08;;;;;;;;;;5091812;28;20020;-64
2021/10/31 00:08:37;;;;;;;27.50;16.83;;;;;;;;;;5073729;28;20096;-64
2021/10/31 00:11:03;;;;;;;31.30;17.73;;;;;;;;;;5073864;28;20036;-64
2021/10/31 00:13:30;;;;;;;27.27;16.27;;;;;;;;;;5092188;28;20070;-64
2021/10/31 00:15:56;;;;;;;31.80;17.65;;;;;;;;;;5091982;28;20032;-64
2021/10/31 00:18:22;;;;;;;32.88;17.70;;;;;;;;;;5073700;28;20042;-64
2021/10/31 00:20:48;;;;;;;30.13;17.40;;;;;;;;;;5074133;28;20494;-65
2021/10/31 00:23:14;;;;;;;31.40;17.70;;;;;;;;;;5091810;28;20024;-65
2021/10/31 00:25:40;;;;;;;31.40;18.27;;;;;;;;;;5073378;28;20052;-65
2021/10/31 00:28:06;;;;;;;32.70;18.25;;;;;;;;;;5091807;28;20065;-64
2021/10/31 00:30:32;;;;;;;28.65;16.90;;;;;;;;;;5091805;28;20317;-65
2021/10/31 00:32:58;;;;;;;30.58;16.60;;;;;;;;;;5091611;28;20430;-64
2021/10/31 00:35:24;;;;;;;28.90;17.60;;;;;;;;;;5091541;28;20095;-65
2021/10/31 00:37:50;;;;;;;28.45;15.93;;;;;;;;;;5091680;28;20391;-65
2021/10/31 00:40:16;;;;;;;29.85;16.75;;;;;;;;;;5091773;28;20020;-66
2021/10/31 00:42:42;;;;;;;31.27;16.40;;;;;;;;;;5091485;28;20016;-65
2021/10/31 00:45:08;;;;;;;28.83;15.95;;;;;;;;;;5074461;28;20020;-65
2021/10/31 00:47:34;;;;;;;26.77;15.65;;;;;;;;;;5095473;28;20095;-64
2021/10/31 00:50:01;;;;;;;26.05;15.07;;;;;;;;;;5096138;28;20508;-65
2021/10/31 00:52:31;;;;;;;28.45;16.83;;;;;;;;;;5077848;28;20046;-65
2021/10/31 00:54:58;;;;;;;30.55;16.92;;;;;;;;;;5095157;28;20032;-65
2021/10/31 00:57:25;;;;;;;27.77;16.75;;;;;;;;;;5096080;28;20398;-65
2021/10/31 00:59:51;;;;;;;30.23;15.18;;;;;;;;;;5095680;28;20077;-65
2021/10/31 01:02:17;;;;;;;30.52;17.38;;;;;;;;;;5077442;28;20048;-64
2021/10/31 01:04:47;;;;;;;30.70;16.83;;;;;;;;;;5094976;28;20020;-65
2021/10/31 01:07:34;;;;;;;27.95;15.73;;;;;;;;;;5076962;28;20020;-64
2021/10/31 01:10:03;;;;;;;30.27;16.15;;;;;;;;;;5095036;28;20031;-64
2021/10/31 01:12:32;;;;;;;31.08;17.30;;;;;;;;;;5076913;28;20024;-64
2021/10/31 01:15:17;;;;;;;31.92;17.63;;;;;;;;;;5095070;28;20475;-64
2021/10/31 01:17:59;;;;;;;30.40;14.85;;;;;;;;;;5076803;28;20074;-64
2021/10/31 01:20:48;;;;;;;30.10;17.30;;;;;;;;;;5095027;28;20051;-64
2021/10/31 01:23:17;;;;;;;29.10;17.13;;;;;;;;;;5047942;28;20075;-64
2021/10/31 01:25:52;;;;;;;32.40;18.33;;;;;;;;;;5094740;28;20531;-64
2021/10/31 01:28:34;;;;;;;32.20;17.08;;;;;;;;;;5094827;28;20016;-64
2021/10/31 01:31:18;;;;;;;29.00;16.40;;;;;;;;;;5076631;28;20396;-64
2021/10/31 01:33:56;;;;;;;32.30;17.92;;;;;;;;;;5076205;28;20510;-64
2021/10/31 01:36:28;;;;;;;31.43;15.87;;;;;;;;;;5076381;28;20039;-64
2021/10/31 01:39:03;;;;;;;30.77;19.73;;;;;;;;;;5076612;28;20282;-64
2021/10/31 01:41:32;;;;;;;32.53;16.92;;;;;;;;;;5094728;28;20017;-64
2021/10/31 01:44:01;;;;;;;31.45;17.67;;;;;;;;;;5076585;28;20146;-64
2021/10/31 01:46:32;;;;;;;31.35;16.58;;;;;;;;;;5095219;28;20021;-65
2021/10/31 01:49:14;;;;;;;31.85;18.75;;;;;;;;;;5095331;28;20028;-65
2021/10/31 01:51:43;;;;;;;33.05;18.75;;;;;;;;;;5076827;28;20476;-65
2021/10/31 01:54:15;;;;;;;34.78;18.77;;;;;;;;;;5076106;28;20047;-64
2021/10/31 01:56:44;;;;;;;32.97;18.50;;;;;;;;;;5075373;28;20031;-65
2021/10/31 01:59:15;;;;;;;33.15;18.40;;;;;;;;;;5076482;28;20060;-64
2021/10/31 02:01:42;;;;;;;30.42;18.35;;;;;;;;;;5094986;28;20020;-65
2021/10/31 02:04:10;;;;;;;32.42;19.65;;;;;;;;;;5094114;28;20414;-65
2021/10/31 02:06:38;;;;;;;37.58;19.40;;;;;;;;;;5094030;28;20016;-65
2021/10/31 02:09:05;;;;;;;33.88;20.48;;;;;;;;;;5094055;28;20032;-64
2021/10/31 02:11:33;;;;;;;36.90;19.58;;;;;;;;;;5093922;28;20406;-64
2021/10/31 02:14:00;;;;;;;37.33;20.52;;;;;;;;;;5093511;28;20492;-63
2021/10/31 02:16:27;;;;;;;33.10;18.38;;;;;;;;;;5093857;28;20052;-65
2021/10/31 02:18:56;;;;;;;37.00;20.15;;;;;;;;;;5076028;28;20024;-65
2021/10/31 02:21:24;;;;;;;32.35;18.30;;;;;;;;;;5093787;28;20016;-64
2021/10/31 02:23:51;;;;;;;32.53;18.17;;;;;;;;;;5075341;28;20034;-65
2021/10/31 02:26:17;;;;;;;34.92;19.98;;;;;;;;;;5093671;28;20020;-65
2021/10/31 02:29:07;;;;;;;35.28;20.95;;;;;;;;;;5093705;28;20028;-65
2021/10/31 02:31:33;;;;;;;35.97;19.52;;;;;;;;;;5093650;28;20110;-65
2021/10/31 02:33:59;;;;;;;37.28;19.88;;;;;;;;;;5093256;28;20046;-64
2021/10/31 02:36:25;;;;;;;36.38;21.00;;;;;;;;;;5075393;28;20115;-65
2021/10/31 02:38:52;;;;;;;37.45;19.52;;;;;;;;;;5094058;28;20070;-65
2021/10/31 02:41:17;;;;;;;33.20;19.30;;;;;;;;;;5094255;28;20020;-65
2021/10/31 02:43:44;;;;;;;35.15;19.73;;;;;;;;;;5075772;28;20076;-65
2021/10/31 02:46:10;;;;;;;39.53;21.38;;;;;;;;;;5075854;28;20093;-66
2021/10/31 02:48:37;;;;;;;36.97;19.67;;;;;;;;;;5093898;28;20386;-66
2021/10/31 02:51:33;;;;;;;34.88;19.80;;;;;;;;;;5093587;28;20031;-66
2021/10/31 02:54:04;;;;;;;36.83;21.30;;;;;;;;;;5060944;28;20040;-65
2021/10/31 02:56:35;;;;;;;37.28;21.58;;;;;;;;;;5093209;28;20032;-65
2021/10/31 02:59:05;;;;;;;36.70;20.13;;;;;;;;;;5074966;28;20035;-65
2021/10/31 03:01:31;;;;;;;38.35;21.27;;;;;;;;;;5093175;28;20016;-64
2021/10/31 03:03:58;;;;;;;37.17;20.40;;;;;;;;;;5074643;28;20051;-64
2021/10/31 03:06:24;;;;;;;36.95;22.30;;;;;;;;;;5092815;28;20436;-64
2021/10/31 03:08:50;;;;;;;40.03;22.23;;;;;;;;;;5092119;28;20541;-64
2021/10/31 03:11:17;;;;;;;40.35;20.63;;;;;;;;;;5092956;28;20425;-64
2021/10/31 03:13:43;;;;;;;43.22;22.35;;;;;;;;;;5092278;28;20059;-64
2021/10/31 03:16:09;;;;;;;36.40;20.30;;;;;;;;;;5092314;28;20032;-64
2021/10/31 03:18:36;;;;;;;33.78;19.27;;;;;;;;;;5074413;28;20031;-64
2021/10/31 03:21:02;;;;;;;35.30;20.92;;;;;;;;;;5074365;28;20020;-64
2021/10/31 03:23:28;;;;;;;37.05;18.73;;;;;;;;;;5092460;28;20695;-64
2021/10/31 03:25:54;;;;;;;35.83;18.92;;;;;;;;;;5074661;28;20386;-64
2021/10/31 03:28:20;;;;;;;32.92;19.02;;;;;;;;;;5092440;28;20025;-64
2021/10/31 03:30:46;;;;;;;36.88;18.92;;;;;;;;;;5092430;28;20491;-64
2021/10/31 03:33:13;;;;;;;34.65;19.80;;;;;;;;;;5092214;28;20051;-64
2021/10/31 03:35:39;;;;;;;34.58;19.48;;;;;;;;;;5092621;28;20055;-64
2021/10/31 03:38:05;;;;;;;37.85;20.45;;;;;;;;;;5074464;28;20023;-64
2021/10/31 03:40:31;;;;;;;35.35;19.42;;;;;;;;;;5092836;28;20043;-64
2021/10/31 03:42:57;;;;;;;34.25;18.95;;;;;;;;;;5074267;28;20078;-64
2021/10/31 03:45:23;;;;;;;35.85;19.95;;;;;;;;;;5092129;28;20020;-66
2021/10/31 03:47:49;;;;;;;35.15;18.25;;;;;;;;;;5074063;28;20020;-64
2021/10/31 03:50:16;;;;;;;33.78;19.35;;;;;;;;;;5074888;28;20024;-64
2021/10/31 03:52:43;;;;;;;36.08;20.25;;;;;;;;;;5074131;28;20491;-64
2021/10/31 03:55:09;;;;;;;35.08;20.20;;;;;;;;;;5091702;28;20039;-64
2021/10/31 03:57:36;;;;;;;37.50;20.85;;;;;;;;;;5073947;28;20491;-65
2021/10/31 04:00:03;;;;;;;42.70;21.98;;;;;;;;;;5092099;28;20031;-65
2021/10/31 04:02:29;;;;;;;34.53;19.27;;;;;;;;;;5073734;28;20024;-64
2021/10/31 04:04:55;;;;;;;32.38;18.35;;;;;;;;;;5073738;28;20467;-64
2021/10/31 04:07:21;;;;;;;36.70;17.90;;;;;;;;;;5073685;28;20094;-64
2021/10/31 04:09:47;;;;;;;36.55;19.83;;;;;;;;;;5092009;28;20020;-64
2021/10/31 04:12:13;;;;;;;33.78;18.17;;;;;;;;;;5092269;28;20390;-65
2021/10/31 04:14:39;;;;;;;32.08;18.13;;;;;;;;;;5091878;28;20039;-64
2021/10/31 04:17:05;;;;;;;33.85;17.83;;;;;;;;;;5091671;28;20081;-64
2021/10/31 04:19:31;;;;;;;32.17;17.48;;;;;;;;;;5073503;28;20028;-65
2021/10/31 04:21:57;;;;;;;34.97;17.45;;;;;;;;;;5091916;28;20019;-64
2021/10/31 04:24:23;;;;;;;34.83;18.33;;;;;;;;;;5091586;28;20099;-64
2021/10/31 04:26:57;;;;;;;36.22;18.45;;;;;;;;;;5073441;28;20097;-64
2021/10/31 04:29:23;;;;;;;32.20;18.35;;;;;;;;;;5091440;28;20035;-64
2021/10/31 04:31:49;;;;;;;34.30;17.70;;;;;;;;;;5091720;28;20428;-64
2021/10/31 04:34:15;;;;;;;34.70;19.20;;;;;;;;;;5073251;28;20051;-64
2021/10/31 04:36:42;;;;;;;34.92;18.02;;;;;;;;;;5073383;28;20111;-63
2021/10/31 04:39:08;;;;;;;31.45;18.15;;;;;;;;;;5091763;28;20063;-64
2021/10/31 04:41:34;;;;;;;32.95;18.73;;;;;;;;;;5092149;28;20036;-64
2021/10/31 04:44:00;;;;;;;33.67;18.17;;;;;;;;;;5073586;28;20043;-65
2021/10/31 04:46:26;;;;;;;33.88;19.05;;;;;;;;;;5092012;28;20463;-64
2021/10/31 04:48:52;;;;;;;35.63;16.83;;;;;;;;;;5100257;22;20055;-67
2021/10/31 04:51:18;;;;;;;34.25;18.38;;;;;;;;;;5069837;28;20106;-67
2021/10/31 04:53:44;;;;;;;33.10;17.88;;;;;;;;;;5069967;28;20020;-67
2021/10/31 04:56:10;;;;;;;36.33;18.30;;;;;;;;;;5070117;28;20120;-67
2021/10/31 04:58:36;;;;;;;30.50;16.83;;;;;;;;;;5071444;28;20029;-68
2021/10/31 05:01:03;;;;;;;30.50;17.10;;;;;;;;;;5071469;28;20078;-67
2021/10/31 05:03:29;;;;;;;32.03;16.90;;;;;;;;;;5068586;28;20036;-68
2021/10/31 05:05:55;;;;;;;31.42;17.27;;;;;;;;;;5069839;28;20145;-67
2021/10/31 05:08:21;;;;;;;32.35;17.48;;;;;;;;;;5071113;28;20028;-67
2021/10/31 05:10:48;;;;;;;32.45;16.77;;;;;;;;;;5069647;28;20052;-67
2021/10/31 05:13:14;;;;;;;36.88;18.38;;;;;;;;;;5071095;28;20047;-67
2021/10/31 05:15:40;;;;;;;35.03;18.00;;;;;;;;;;5070132;28;20016;-67
2021/10/31 05:18:06;;;;;;;32.08;17.05;;;;;;;;;;5071384;28;20484;-66
2021/10/31 05:20:32;;;;;;;33.92;18.98;;;;;;;;;;5063445;28;20017;-67
2021/10/31 05:22:58;;;;;;;32.95;18.40;;;;;;;;;;5063804;28;20021;-66
2021/10/31 05:25:24;;;;;;;34.50;17.35;;;;;;;;;;5050325;28;20492;-67
2021/10/31 05:27:51;;;;;;;35.97;18.15;;;;;;;;;;5052958;28;20025;-67
2021/10/31 05:30:17;;;;;;;31.45;19.27;;;;;;;;;;5071321;28;20028;-68
2021/10/31 05:32:43;;;;;;;37.05;17.27;;;;;;;;;;5072102;28;20108;-68
2021/10/31 05:35:11;;;;;;;33.47;17.75;;;;;;;;;;5060807;28;20127;-67
2021/10/31 05:37:41;;;;;;;32.42;17.73;;;;;;;;;;5063486;28;20039;-64
2021/10/31 05:40:08;;;;;;;30.63;16.90;;;;;;;;;;5062743;28;20611;-64
2021/10/31 05:42:34;;;;;;;32.22;18.77;;;;;;;;;;5057050;28;20034;-65
2021/10/31 05:45:00;;;;;;;34.92;18.60;;;;;;;;;;5052538;28;20396;-64
2021/10/31 05:47:27;;;;;;;33.95;18.00;;;;;;;;;;5052668;28;20017;-65
2021/10/31 05:49:53;;;;;;;35.33;17.92;;;;;;;;;;5054023;28;20029;-65
2021/10/31 05:52:19;;;;;;;30.67;17.98;;;;;;;;;;5052497;28;20382;-65
2021/10/31 05:54:45;;;;;;;32.17;18.45;;;;;;;;;;5066478;28;20025;-65
2021/10/31 05:57:11;;;;;;;31.88;17.30;;;;;;;;;;5072613;28;20510;-65
2021/10/31 05:59:37;;;;;;;32.90;17.13;;;;;;;;;;5073707;28;20025;-65
2021/10/31 06:02:04;;;;;;;34.92;17.65;;;;;;;;;;5073878;28;20020;-65
2021/10/31 06:04:31;;;;;;;34.88;17.85;;;;;;;;;;5073411;28;20510;-65
2021/10/31 06:06:57;;;;;;;32.25;17.50;;;;;;;;;;5073895;28;20024;-65
2021/10/31 06:09:23;;;;;;;33.28;16.58;;;;;;;;;;5072378;28;20021;-63
2021/10/31 06:11:49;;;;;;;33.08;17.92;;;;;;;;;;5073588;28;20484;-65
2021/10/31 06:14:16;;;;;;;31.13;16.65;;;;;;;;;;5071818;28;20142;-66
2021/10/31 06:16:42;;;;;;;31.75;16.55;;;;;;;;;;5072338;28;20392;-66
2021/10/31 06:19:08;;;;;;;32.58;17.23;;;;;;;;;;5073285;28;20029;-65
2021/10/31 06:21:34;;;;;;;32.35;17.15;;;;;;;;;;5072118;28;20539;-66
2021/10/31 06:24:00;;;;;;;30.83;17.15;;;;;;;;;;5071940;28;20052;-66
2021/10/31 06:26:26;;;;;;;31.95;17.20;;;;;;;;;;5072035;28;20040;-66
2021/10/31 06:28:52;;;;;;;33.60;17.17;;;;;;;;;;5073232;28;20377;-65
2021/10/31 06:31:18;;;;;;;32.10;17.05;;;;;;;;;;5071950;28;20115;-66
2021/10/31 06:33:45;;;;;;;30.23;16.52;;;;;;;;;;5072949;28;20028;-67
2021/10/31 06:36:10;;;;;;;32.22;16.20;;;;;;;;;;5073327;28;20021;-65
2021/10/31 06:38:38;;;;;;;29.23;16.27;;;;;;;;;;5073030;28;20108;-66
2021/10/31 06:41:07;;;;;;;27.88;15.10;;;;;;;;;;5073161;28;20028;-66
2021/10/31 06:43:34;;;;;;;29.50;15.85;;;;;;;;;;5071537;28;20043;-65
2021/10/31 06:46:00;;;;;;;29.65;15.35;;;;;;;;;;5071776;28;20388;-66
2021/10/31 06:48:26;;;;;;;34.40;17.42;;;;;;;;;;5072841;28;20040;-66
2021/10/31 06:50:54;;;;;;;29.23;16.85;;;;;;;;;;5068593;28;20017;-65
2021/10/31 06:53:20;;;;;;;29.70;15.57;;;;;;;;;;5072715;28;20028;-63
2021/10/31 06:55:46;;;;;;;31.67;16.88;;;;;;;;;;5061616;28;20416;-65
2021/10/31 06:58:12;;;;;;;30.15;16.90;;;;;;;;;;5052788;28;20024;-66
2021/10/31 07:00:38;;;;;;;31.75;17.13;;;;;;;;;;5051397;28;20044;-66
2021/10/31 07:03:04;;;;;;;31.88;16.58;;;;;;;;;;5052646;28;20021;-66
2021/10/31 07:05:31;;;;;;;30.00;16.77;;;;;;;;;;5052410;28;20388;-66
2021/10/31 07:07:57;;;;;;;31.55;17.75;;;;;;;;;;5052711;28;20028;-66
2021/10/31 07:10:23;;;;;;;29.63;17.35;;;;;;;;;;5052501;28;20443;-66
2021/10/31 07:12:49;;;;;;;29.85;15.80;;;;;;;;;;5052570;28;20198;-65
2021/10/31 07:15:15;;;;;;;29.52;15.55;;;;;;;;;;5051338;28;20036;-65
2021/10/31 07:17:42;;;;;;;34.83;16.40;;;;;;;;;;5051153;28;20025;-65
2021/10/31 07:20:10;;;;;;;29.85;16.85;;;;;;;;;;5051217;28;20057;-66
2021/10/31 07:22:36;;;;;;;29.67;16.00;;;;;;;;;;5063461;28;20457;-66
2021/10/31 07:25:03;;;;;;;32.70;17.17;;;;;;;;;;5070930;28;20074;-66
2021/10/31 07:27:29;;;;;;;26.77;14.93;;;;;;;;;;5072226;28;20032;-67
2021/10/31 07:29:55;;;;;;;29.58;16.13;;;;;;;;;;5071131;28;20419;-66
2021/10/31 07:32:21;;;;;;;29.90;16.40;;;;;;;;;;5070824;28;20166;-65
2021/10/31 07:34:47;;;;;;;27.27;16.35;;;;;;;;;;5071796;28;20029;-67
2021/10/31 07:37:13;;;;;;;29.92;16.27;;;;;;;;;;5071865;28;20036;-66
2021/10/31 07:39:41;;;;;;;26.17;14.90;;;;;;;;;;5071804;28;20032;-68
2021/10/31 07:42:07;;;;;;;23.87;13.63;;;;;;;;;;5070688;28;20021;-67
2021/10/31 07:44:33;;;;;;;36.67;14.75;;;;;;;;;;5071585;28;20267;-66
2021/10/31 07:46:59;;;;;;;25.35;14.52;;;;;;;;;;5071680;28;20131;-67
2021/10/31 07:49:26;;;;;;;28.00;14.38;;;;;;;;;;5070265;28;20185;-67
2021/10/31 07:51:52;;;;;;;27.17;13.98;;;;;;;;;;5071781;28;20025;-68
2021/10/31 07:54:23;;;;;;;25.90;14.63;;;;;;;;;;5071180;28;20021;-68
2021/10/31 07:56:51;;;;;;;25.65;14.45;;;;;;;;;;5070502;28;20032;-67
2021/10/31 07:59:17;;;;;;;25.75;13.55;;;;;;;;;;5070286;28;20068;-68
2021/10/31 08:01:43;;;;;;;27.52;15.25;;;;;;;;;;5071697;28;20020;-66
2021/10/31 08:04:09;;;;;;;25.30;13.43;;;;;;;;;;5070035;28;20024;-68
2021/10/31 08:06:35;;;;;;;24.02;14.10;;;;;;;;;;5071698;28;20521;-68
2021/10/31 08:09:01;;;;;;;28.25;14.60;;;;;;;;;;5071749;28;20025;-67
2021/10/31 08:11:27;;;;;;;24.20;13.30;;;;;;;;;;5071629;28;20021;-67
2021/10/31 08:13:53;;;;;;;24.15;13.07;;;;;;;;;;5070216;28;20033;-67
2021/10/31 08:16:22;;;;;;;24.05;13.93;;;;;;;;;;5070446;28;20554;-67
2021/10/31 08:18:48;;;;;;;25.20;14.60;;;;;;;;;;5071497;28;20028;-64
2021/10/31 08:21:14;;;;;;;27.08;13.90;;;;;;;;;;5068080;28;20028;-67
2021/10/31 08:23:40;;;;;;;24.58;12.65;;;;;;;;;;5071146;28;20104;-67
2021/10/31 08:26:06;;;;;;;22.67;12.35;;;;;;;;;;5070231;28;20020;-68
2021/10/31 08:28:36;;;;;;;24.10;12.07;;;;;;;;;;5070084;28;20020;-66
2021/10/31 08:31:02;;;;;;;24.27;12.80;;;;;;;;;;5071555;28;20024;-67
2021/10/31 08:33:33;;;;;;;22.23;12.30;;;;;;;;;;5070979;28;20630;-69
2021/10/31 08:35:59;;;;;;;21.67;12.07;;;;;;;;;;5070467;28;20013;-68
2021/10/31 08:38:26;;;;;;;22.50;11.77;;;;;;;;;;5071749;28;20098;-70
2021/10/31 08:40:53;;;;;;;24.42;10.90;;;;;;;;;;5071232;28;20650;-70
2021/10/31 08:43:19;;;;;;;21.90;12.35;;;;;;;;;;5069502;28;20024;-69
2021/10/31 08:45:46;;;;;;;23.15;12.10;;;;;;;;;;5071332;28;20028;-70
2021/10/31 08:48:16;;;;;;;22.95;10.98;;;;;;;;;;5069742;28;20032;-68
2021/10/31 08:50:42;;;;;;;20.40;11.05;;;;;;;;;;5071327;28;20021;-68
2021/10/31 08:53:08;;;;;;;21.15;10.73;;;;;;;;;;5069508;28;20349;-68
2021/10/31 08:55:36;;;;;;;20.25;11.07;;;;;;;;;;5071218;28;20108;-68
2021/10/31 08:58:04;;;;;;;20.90;10.32;;;;;;;;;;5070213;28;20036;-69
2021/10/31 09:00:30;;;;;;;19.73;10.50;;;;;;;;;;5068107;28;20037;-69
2021/10/31 09:02:56;;;;;;;21.88;9.40;;;;;;;;;;5057550;28;20023;-69
2021/10/31 09:05:22;;;;;;;17.38;9.32;;;;;;;;;;5060517;28;20024;-69
2021/10/31 09:07:48;;;;;;;22.98;10.32;;;;;;;;;;5051531;28;20599;-69
2021/10/31 09:10:14;;;;;;;18.77;9.68;;;;;;;;;;5053616;28;20108;-69
2021/10/31 09:12:41;;;;;;;19.25;9.18;;;;;;;;;;5053435;28;20172;-69
2021/10/31 09:15:07;;;;;;;20.00;8.93;;;;;;;;;;5054535;28;20029;-69
2021/10/31 09:17:33;;;;;;;18.73;9.32;;;;;;;;;;5039519;28;20423;-68
2021/10/31 09:19:59;;;;;;;16.38;7.95;;;;;;;;;;5054727;28;20032;-69
2021/10/31 09:22:25;;;;;;;17.90;8.50;;;;;;;;;;5063982;28;20450;-69
2021/10/31 09:24:51;;;;;;;17.55;8.32;;;;;;;;;;5074225;28;20104;-69
2021/10/31 09:27:19;;;;;;;17.30;8.25;;;;;;;;;;5073581;28;20116;-70
2021/10/31 09:29:45;;;;;;;;;;;;;;;;;;5073727;28;20029;-71
2021/10/31 09:32:11;;;;;;;15.45;7.55;;;;;;;;;;5073293;28;19905;-69
2021/10/31 09:34:37;;;;;;;16.50;7.03;;;;;;;;;;5072912;28;20028;-70
2021/10/31 09:37:04;;;;;;;16.17;7.85;;;;;;;;;;5074147;28;20024;-70
2021/10/31 09:39:30;;;;;;;16.85;8.20;;;;;;;;;;5072799;28;20112;-69
2021/10/31 09:41:56;;;;;;;15.77;7.78;;;;;;;;;;5074312;28;20027;-70
2021/10/31 09:44:27;;;;;;;16.00;7.50;;;;;;;;;;5073504;28;20134;-69
2021/10/31 09:46:53;;;;;;;16.10;8.00;;;;;;;;;;5072677;28;20425;-70
2021/10/31 09:49:21;;;;;;;15.68;7.43;;;;;;;;;;5072917;28;20033;-70
2021/10/31 09:51:49;;;;;;;15.90;7.32;;;;;;;;;;5072540;28;20024;-69
2021/10/31 09:54:15;;;;;;;15.30;7.45;;;;;;;;;;5072090;28;20024;-70
2021/10/31 09:56:41;;;;;;;15.32;7.22;;;;;;;;;;5073567;28;20021;-69
2021/10/31 09:59:12;;;;;;;14.93;7.97;;;;;;;;;;5072007;28;20032;-70
2021/10/31 10:02:13;;;;;;;15.52;8.02;;;;;;;;;;5073542;28;20017;-70
2021/10/31 10:04:53;;;;;;;16.80;7.88;;;;;;;;;;5073805;28;20013;-70
2021/10/31 10:07:21;;;;;;;17.38;8.50;;;;;;;;;;5073503;28;20024;-70
2021/10/31 10:09:52;;;;;;;15.50;7.00;;;;;;;;;;5073104;28;20076;-71
2021/10/31 10:12:19;;;;;;;16.60;7.75;;;;;;;;;;5071740;28;20559;-71
2021/10/31 10:14:51;;;;;;;17.05;8.18;;;;;;;;;;5073522;28;20515;-70
2021/10/31 10:17:17;;;;;;;15.65;7.53;;;;;;;;;;5071833;28;20027;-70
2021/10/31 10:19:47;;;;;;;16.60;8.23;;;;;;;;;;5072402;28;20115;-70
2021/10/31 10:22:14;;;;;;;16.05;8.60;;;;;;;;;;5073810;28;20387;-70
2021/10/31 10:24:48;;;;;;;15.90;7.43;;;;;;;;;;5072015;28;20025;-70
2021/10/31 10:27:14;;;;;;;16.23;7.68;;;;;;;;;;5073123;28;20040;-70
2021/10/31 10:29:41;;;;;;;17.92;8.00;;;;;;;;;;5073374;28;20050;-70
2021/10/31 10:32:15;;;;;;;16.88;7.57;;;;;;;;;;5073261;28;20107;-70
2021/10/31 10:34:47;;;;;;;15.02;7.80;;;;;;;;;;5071890;28;20024;-71
2021/10/31 10:37:25;;;;;;;18.20;7.95;;;;;;;;;;5073599;28;20500;-69
2021/10/31 10:39:56;;;;;;;16.77;7.47;;;;;;;;;;5071893;28;20401;-70
2021/10/31 10:42:23;;;;;;;16.30;7.78;;;;;;;;;;5071678;28;20526;-70
2021/10/31 10:44:50;;;;;;;15.50;7.80;;;;;;;;;;5072092;28;20078;-70
2021/10/31 10:47:19;;;;;;;15.75;7.32;;;;;;;;;;5072113;28;20020;-70
2021/10/31 10:49:46;;;;;;;14.88;7.63;;;;;;;;;;5089062;22;20048;-67
2021/10/31 10:52:23;;;;;;;14.93;7.53;;;;;;;;;;5072461;28;20107;-69
2021/10/31 10:54:52;;;;;;;14.23;7.75;;;;;;;;;;5070299;28;20043;-69
2021/10/31 10:57:19;;;;;;;14.32;8.60;;;21.10;97.60;;;;;;5072731;28;20028;-68
2021/10/31 10:59:50;;;;;;;15.13;8.60;;;18.60;99.90;;;;;;5071638;28;20178;-68
2021/10/31 11:02:18;;;;;;;15.40;8.85;;;19.00;99.90;;;;;;5074137;28;20024;-68
2021/10/31 11:04:56;;;;;;;15.80;9.03;;;19.50;99.90;;;;;;5072007;28;20020;-68
2021/10/31 11:07:34;;;;;;;15.20;9.30;;;19.40;99.90;;;;;;5071703;28;20278;-68
2021/10/31 11:10:00;;;;;;;16.45;9.30;;;18.80;99.90;;;;;;5072585;28;20036;-68
2021/10/31 11:12:33;;;;;;;16.33;9.30;;;;;;;;;;5073041;28;20025;-68
2021/10/31 11:15:08;;;;;;;16.08;10.20;;;19.00;99.90;;;;;;5071507;28;20025;-68
2021/10/31 11:17:35;;;;;;;16.92;12.00;;;;;;;;;;5071279;28;20437;-68
2021/10/31 11:20:01;;;;;;;15.90;10.13;;;20.40;99.90;;;;;;5070949;28;20507;-68
2021/10/31 11:22:30;;;;;;;14.80;10.10;;;21.80;99.90;;;;;;5071435;28;20020;-68
2021/10/31 11:24:57;;;;;;;15.02;9.90;;;;;;;;;;5071530;28;20017;-69
2021/10/31 11:27:27;;;;;;;15.75;9.93;;;22.10;99.90;;;;;;5071728;28;20024;-69
2021/10/31 11:29:57;;;;;;;15.55;9.88;;;21.60;99.90;;;;;;5069379;28;20035;-69
2021/10/31 11:32:24;;;;;;;16.13;10.23;;;20.60;99.90;;;;;;5070978;28;20025;-68
2021/10/31 11:34:53;;;;;;;16.17;10.47;;;20.80;99.90;;;;;;5070457;28;20020;-67
2021/10/31 11:37:19;;;;;;;;;;;;;;;;;;5071207;28;20336;-68
2021/10/31 11:39:45;;;;;;;15.13;10.00;;;;;;;;;;5071375;28;19927;-68
2021/10/31 11:42:13;;;;;;;16.23;10.00;;;20.90;99.90;;;;;;5071793;28;20034;-69
2021/10/31 11:44:58;;;;;;;15.82;10.13;;;;;;;;;;5071558;28;20020;-68
2021/10/31 11:47:29;;;;;;;16.45;9.77;;;20.90;99.90;;;;;;5072518;28;20135;-68
2021/10/31 11:50:12;;;;;;;16.17;10.32;;;;;;;;;;5072279;28;20056;-68
2021/10/31 11:52:44;;;;;;;15.55;9.80;;;;;;;;;;5073628;28;20063;-68
2021/10/31 11:55:39;;;;;;;14.70;9.50;;;;;;;;;;5072096;28;20028;-68
2021/10/31 11:58:24;;;;;;;15.65;9.77;;;;;;;;;;5070666;28;20488;-68
2021/10/31 12:00:52;;;;;;;15.20;9.25;;;;;;;;;;5071072;28;20058;-68
2021/10/31 12:03:40;;;;;;;15.55;9.38;;;;;;;;;;5070639;28;20090;-71
2021/10/31 12:06:26;;;;;;;15.30;9.23;;;;;;;;;;5061173;28;20070;-69
2021/10/31 12:08:56;;;;;;;14.80;9.57;;;;;;;;;;5064551;28;20092;-68
2021/10/31 12:11:32;;;;;;;16.08;9.20;;;;;;;;;;5070802;28;20040;-69
2021/10/31 12:13:59;;;;;;;15.75;9.50;;;;;;;;;;5068424;28;20025;-68
2021/10/31 12:16:25;;;;;;;14.73;8.85;;;;;;;;;;5070570;28;20020;-69
2021/10/31 12:18:51;;;;;;;16.02;9.25;;;;;;;;;;5063566;28;20025;-68
2021/10/31 12:21:28;;;;;;;16.00;9.02;;;;;;;;;;5068081;28;20055;-67
2021/10/31 12:23:59;;;;;;;15.15;8.82;;;;;;;;;;5072039;28;20104;-68
2021/10/31 12:26:26;;;;;;;16.30;8.85;;;;;;;;;;5073114;28;20523;-68
2021/10/31 12:29:07;;;;;;;14.30;8.30;;;;;;;;;;5070006;28;20023;-67
2021/10/31 12:31:33;;;;;;;14.45;8.50;;;;;;;;;;5072719;28;20317;-67
2021/10/31 12:34:10;;;;;;;15.68;8.73;;;;;;;;;;5072315;28;20108;-68
2021/10/31 12:36:38;;;;;;;16.02;9.20;;;;;;;;;;5072301;28;20021;-69
2021/10/31 12:39:24;;;;;;;15.82;9.27;;;;;;;;;;5073285;28;20436;-69
2021/10/31 12:42:08;;;;;;;15.15;9.40;;;;;;;;;;5074662;28;20440;-69
2021/10/31 12:44:35;;;;;;;14.65;8.98;;;;;;;;;;5074348;28;20024;-68
2021/10/31 12:47:10;;;;;;;16.90;9.38;;;;;;;;;;5073216;28;20082;-68
2021/10/31 12:49:36;;;;;;;16.05;9.05;;;19.60;99.90;;;;;;5074216;28;20032;-68
2021/10/31 12:52:03;;;;;;;15.27;8.85;;;;;;;;;;5075820;28;20061;-69
2021/10/31 12:54:36;;;;;;;15.20;8.68;;;;;;;;;;5075043;28;20021;-68
2021/10/31 12:57:09;;;;;;;15.38;8.57;;;;;;;;;;5074452;28;20032;-69
2021/10/31 12:59:45;;;;;;;13.60;7.68;;;;;;;;;;5075348;28;20388;-70
2021/10/31 13:02:13;;;;;;;14.13;7.65;;;;;;;;;;5075339;28;20020;-71
2021/10/31 13:04:57;;;;;;;13.43;7.30;;;;;;;;;;5074851;28;20032;-65
2021/10/31 13:07:38;;;;;;;14.65;8.00;;;;;;;;;;5073454;28;20477;-64
2021/10/31 13:10:05;;;;;;;14.13;7.22;;;;;;;;;;5073245;28;20031;-65
2021/10/31 13:12:31;;;;;;;14.27;7.85;;;;;;;;;;5074787;28;20062;-65
2021/10/31 13:15:08;;;;;;;14.85;7.70;;;;;;;;;;5074661;28;20059;-65
2021/10/31 13:17:37;;;;;;;14.75;7.75;;;;;;;;;;5075001;28;20039;-65
2021/10/31 13:20:07;;;;;;;14.45;7.90;;;;;;;;;;5073014;28;20154;-65
2021/10/31 13:22:34;;;;;;;14.43;8.30;;;;;;;;;;5073405;28;20039;-63
2021/10/31 13:25:01;;;;;;;13.98;8.38;;;;;;;;;;4721715;28;9999653;-63
2021/10/31 13:27:27;;;;;;;14.00;7.90;;;;;;;;;;5070369;28;20436;-63
2021/10/31 13:29:56;;;;;;;15.63;8.65;;;;;;;;;;5070488;28;20131;-65
2021/10/31 13:32:26;;;;;;;13.82;8.25;;;;;;;;;;5071112;28;20137;-65
2021/10/31 13:34:54;;;;;;;14.40;8.68;;;;;;;;;;5068558;28;20036;-65
2021/10/31 13:37:21;;;;;;;14.85;8.43;;;;;;;;;;5071245;28;20499;-65
2021/10/31 13:39:56;;;;;;;15.23;8.70;;;;;;;;;;5072647;28;20484;-65
2021/10/31 13:42:30;;;;;;;14.50;8.27;;;;;;;;;;5073247;28;20029;-64
2021/10/31 13:44:56;;;;;;;13.98;8.13;;;;;;;;;;5072674;28;20127;-63
2021/10/31 13:49:52;;;;;;;15.65;8.52;;;;;;;;;;5073832;28;20127;-66
2021/10/31 13:52:19;;;;;;;15.93;8.50;;;;;;;;;;5072999;28;20061;-65
2021/10/31 13:54:46;;;;;;;15.38;8.70;;;;;;;;;;5073457;28;20128;-65
2021/10/31 13:57:19;;;;;;;15.20;8.50;;;;;;;;;;5074422;28;20044;-65
2021/10/31 13:59:48;;;;;;;14.30;7.65;;;;;;;;;;5074851;28;20031;-66
2021/10/31 14:02:15;;;;;;;14.45;7.82;;;;;;;;;;5073163;28;20047;-63
2021/10/31 14:04:41;;;;;;;14.85;7.60;;;;;;;;;;5073977;28;20020;-64
2021/10/31 14:07:11;;;;;;;14.27;7.60;;;;;;;;;;5072400;28;20107;-63
2021/10/31 14:09:44;;;;;;;14.07;7.90;;;;;;;;;;5073689;28;20112;-64
2021/10/31 14:12:18;;;;;;;14.55;8.00;;;;;;;;;;5073453;28;20029;-63
2021/10/31 14:14:48;;;;;;;16.20;8.45;;;;;;;;;;5073196;28;20021;-64
2021/10/31 14:17:20;;;;;;;14.85;9.20;;;;;;;;;;5072513;28;20085;-64
2021/10/31 14:19:48;;;;;;;14.15;8.32;;;;;;;;;;5073410;28;20104;-62
2021/10/31 14:22:15;;;;;;;15.52;8.55;;;;;;;;;;5072088;28;20020;-64
2021/10/31 14:24:41;;;;;;;14.23;8.20;;;;;;;;;;5073377;28;20031;-63
2021/10/31 14:27:21;;;;;;;14.07;8.13;;;;;;;;;;5073405;28;20027;-63